Time;durP1;ratioP1;P1;durP2;ratioP2;P2;SDS_P1;SDS_P2;PMS_P1;PMS_P2;Temp;Humidity;BMP_temperature;BMP_pressure;BME280_temperature;BME280_humidity;BME280_pressure;Samples;Min_cycle;Max_cycle;Signal;HPM_P1;HPM_P2
2023/07/16 00:01:18;;;;;;;4.50;1.23;;;21.00;99.90;;;;;;5067507;28;20438;-69
2023/07/16 00:03:43;;;;;;;5.50;1.80;;;20.90;99.90;;;;;;5068282;28;20911;-69
2023/07/16 00:06:11;;;;;;;5.00;1.20;;;20.90;99.90;;;;;;5068091;28;20399;-69
2023/07/16 00:08:37;;;;;;;4.90;1.30;;;21.00;99.90;;;;;;5067560;28;20380;-69
2023/07/16 00:11:03;;;;;;;5.10;1.20;;;20.90;99.90;;;;;;5067974;28;20392;-69
2023/07/16 00:13:29;;;;;;;4.90;1.30;;;21.00;99.90;;;;;;5067983;28;20756;-69
2023/07/16 00:15:54;;;;;;;5.43;1.30;;;20.90;99.90;;;;;;5068203;28;20384;-69
2023/07/16 00:18:20;;;;;;;5.50;1.40;;;20.80;99.90;;;;;;5070677;28;20398;-69
2023/07/16 00:20:46;;;;;;;5.17;0.90;;;20.90;99.90;;;;;;5070988;28;20407;-69
2023/07/16 00:23:11;;;;;;;4.63;1.10;;;20.90;99.90;;;;;;5071272;28;20391;-68
2023/07/16 00:25:37;;;;;;;4.83;1.13;;;20.90;99.90;;;;;;5071309;28;20418;-68
2023/07/16 00:28:02;;;;;;;4.40;1.00;;;20.80;99.90;;;;;;5071292;28;20396;-68
2023/07/16 00:30:28;;;;;;;4.60;1.10;;;20.80;99.90;;;;;;5071171;28;20422;-69
2023/07/16 00:32:53;;;;;;;6.07;1.20;;;20.80;99.90;;;;;;5071723;28;20441;-69
2023/07/16 00:35:19;;;;;;;4.37;1.10;;;20.80;99.90;;;;;;5071029;28;20412;-69
2023/07/16 00:37:45;;;;;;;5.47;1.20;;;20.80;99.90;;;;;;5053157;28;20418;-69
2023/07/16 00:40:11;;;;;;;4.72;1.00;;;20.70;99.90;;;;;;5071085;28;20450;-69
2023/07/16 00:42:36;;;;;;;4.20;0.90;;;20.70;99.90;;;;;;5071295;28;20384;-69
2023/07/16 00:45:02;;;;;;;4.80;1.20;;;20.70;99.90;;;;;;5070706;28;20403;-69
2023/07/16 00:47:28;;;;;;;5.10;1.23;;;20.70;99.90;;;;;;5070927;28;20799;-69
2023/07/16 00:49:54;;;;;;;5.30;0.80;;;20.70;99.90;;;;;;5071113;28;20395;-69
2023/07/16 00:52:22;;;;;;;5.70;0.90;;;20.70;99.90;;;;;;5071212;28;20388;-69
2023/07/16 00:54:48;;;;;;;7.90;1.20;;;20.60;99.90;;;;;;5070585;28;20839;-69
2023/07/16 00:57:14;;;;;;;4.20;1.00;;;20.80;99.90;;;;;;5070571;28;20477;-69
2023/07/16 00:59:39;;;;;;;5.40;1.17;;;20.80;99.90;;;;;;5070511;28;20475;-69
2023/07/16 01:02:05;;;;;;;5.90;1.00;;;20.80;99.90;;;;;;5070670;28;20426;-69
2023/07/16 01:04:31;;;;;;;7.10;1.00;;;20.80;99.90;;;;;;5069987;28;20391;-69
2023/07/16 01:07:01;;;;;;;4.68;0.88;;;20.60;99.90;;;;;;5070223;28;20412;-69
2023/07/16 01:09:28;;;;;;;5.50;1.00;;;20.60;99.90;;;;;;5070392;28;20751;-69
2023/07/16 01:11:55;;;;;;;4.20;0.80;;;20.60;99.90;;;;;;5070728;28;20399;-69
2023/07/16 01:14:22;;;;;;;6.90;1.10;;;20.60;99.90;;;;;;5052076;28;20484;-69
2023/07/16 01:16:47;;;;;;;7.60;1.10;;;20.60;99.90;;;;;;5070346;28;20391;-69
2023/07/16 01:19:13;;;;;;;6.60;1.08;;;20.60;99.90;;;;;;5069915;28;20395;-69
2023/07/16 01:22:06;;;;;;;4.55;0.90;;;20.50;99.90;;;;;;5070303;28;20729;-69
2023/07/16 01:24:47;;;;;;;4.63;0.98;;;20.40;99.90;;;;;;5070115;28;20399;-69
2023/07/16 01:27:50;;;;;;;4.70;1.20;;;20.40;99.90;;;;;;5052408;28;20795;-69
2023/07/16 01:30:18;;;;;;;4.40;0.90;;;20.40;99.90;;;;;;5070088;28;20392;-69
2023/07/16 01:32:45;;;;;;;6.47;1.07;;;20.40;99.90;;;;;;5069903;28;20391;-68
2023/07/16 01:35:11;;;;;;;6.20;0.90;;;20.30;99.90;;;;;;5069621;28;20471;-68
2023/07/16 01:37:37;;;;;;;5.93;1.10;;;20.30;99.90;;;;;;5052171;28;20470;-68
2023/07/16 01:40:03;;;;;;;4.67;1.00;;;20.10;93.60;;;;;;5069609;28;20452;-68
2023/07/16 01:42:28;;;;;;;4.50;0.90;;;20.10;71.70;;;;;;5051944;28;20391;-68
2023/07/16 01:44:54;;;;;;;4.40;0.98;;;20.10;64.30;;;;;;5070110;28;20396;-68
2023/07/16 01:47:40;;;;;;;5.13;0.90;;;20.10;79.90;;;;;;5069441;28;20395;-69
2023/07/16 01:50:06;;;;;;;4.60;0.70;;;20.00;69.10;;;;;;5069255;28;20395;-68
2023/07/16 01:52:32;;;;;;;7.20;1.00;;;20.00;30.60;;;;;;5069825;28;20376;-68
2023/07/16 01:54:57;;;;;;;5.18;0.80;;;20.00;85.60;;;;;;5069335;28;20914;-68
2023/07/16 01:57:23;;;;;;;4.75;0.90;;;19.90;1.00;;;;;;5070000;28;20414;-68
2023/07/16 01:59:48;;;;;;;6.63;1.10;;;19.90;1.00;;;;;;5069436;28;20507;-68
2023/07/16 02:02:14;;;;;;;4.18;0.85;;;19.90;1.00;;;;;;5052799;28;20528;-68
2023/07/16 02:04:39;;;;;;;5.13;1.20;;;19.90;1.00;;;;;;5049428;28;20401;-68
2023/07/16 02:07:06;;;;;;;4.30;0.90;;;19.60;1.00;;;;;;5049302;28;20869;-68
2023/07/16 02:09:33;;;;;;;5.20;1.07;;;19.70;1.00;;;;;;5049439;28;20382;-69
2023/07/16 02:11:59;;;;;;;6.30;0.90;;;19.70;1.00;;;;;;5049348;28;20855;-69
2023/07/16 02:14:24;;;;;;;4.22;0.95;;;19.60;1.00;;;;;;5031636;28;20428;-69
2023/07/16 02:16:51;;;;;;;4.88;0.98;;;19.60;1.00;;;;;;5048515;28;20390;-69
2023/07/16 02:19:17;;;;;;;6.70;1.00;;;19.70;1.00;;;;;;5049323;28;20447;-69
2023/07/16 02:21:43;;;;;;;4.60;0.80;;;19.80;6.10;;;;;;5049495;28;20411;-69
2023/07/16 02:24:08;;;;;;;4.97;1.00;;;19.70;1.00;;;;;;5049230;28;20429;-69
2023/07/16 02:26:34;;;;;;;7.80;1.30;;;19.90;7.90;;;;;;5049198;28;20433;-69
2023/07/16 02:29:00;;;;;;;4.83;1.30;;;19.90;42.30;;;;;;5049435;28;20409;-69
2023/07/16 02:31:25;;;;;;;6.47;1.03;;;19.70;26.60;;;;;;5049738;28;20765;-69
2023/07/16 02:33:51;;;;;;;6.30;0.90;;;19.70;32.00;;;;;;5049619;28;20746;-68
2023/07/16 02:36:16;;;;;;;4.40;1.00;;;19.70;17.70;;;;;;5049888;28;20746;-69
2023/07/16 02:38:42;;;;;;;5.30;1.20;;;19.60;1.00;;;;;;5049370;28;20394;-69
2023/07/16 02:41:07;;;;;;;5.30;1.40;;;19.60;1.00;;;;;;5048188;28;20504;-69
2023/07/16 02:43:33;;;;;;;5.00;1.30;;;19.60;1.00;;;;;;5048075;28;20385;-68
2023/07/16 02:45:58;;;;;;;5.70;1.30;;;19.60;1.00;;;;;;5048155;28;20385;-68
2023/07/16 02:48:24;;;;;;;6.10;1.20;;;19.60;1.00;;;;;;5048767;28;20394;-69
2023/07/16 02:50:49;;;;;;;7.30;1.60;;;19.60;1.00;;;;;;5048161;28;20954;-69
2023/07/16 02:53:15;;;;;;;6.60;1.13;;;19.70;31.60;;;;;;5048816;28;20476;-69
2023/07/16 02:55:40;;;;;;;4.90;0.93;;;19.70;54.70;;;;;;5048807;28;20385;-69
2023/07/16 02:58:06;;;;;;;6.20;1.23;;;19.70;27.20;;;;;;5048406;28;20912;-68
2023/07/16 03:00:32;;;;;;;5.37;1.13;;;19.70;39.10;;;;;;5050271;28;20419;-69
2023/07/16 03:03:00;;;;;;;4.60;1.10;;;19.80;52.90;;;;;;5068841;28;20848;-68
2023/07/16 03:05:27;;;;;;;7.70;1.30;;;19.60;1.00;;;;;;5069081;28;20471;-68
2023/07/16 03:07:53;;;;;;;4.90;1.10;;;19.60;1.00;;;;;;5068695;28;20447;-68
2023/07/16 03:10:19;;;;;;;5.50;1.27;;;19.50;1.00;;;;;;5050813;28;20388;-68
2023/07/16 03:12:45;;;;;;;4.90;1.15;;;19.40;1.00;;;;;;5068695;28;20388;-69
2023/07/16 03:15:10;;;;;;;11.30;1.30;;;19.40;1.00;;;;;;5068208;28;20400;-68
2023/07/16 03:17:36;;;;;;;4.80;1.00;;;19.20;1.00;;;;;;5068469;28;20764;-69
2023/07/16 03:20:04;;;;;;;4.93;0.97;;;19.20;1.00;;;;;;5068291;28;20420;-69
2023/07/16 03:22:31;;;;;;;4.45;1.20;;;19.20;1.00;;;;;;5067735;28;20390;-69
2023/07/16 03:24:56;;;;;;;4.35;0.90;;;19.30;1.00;;;;;;5069022;28;20467;-69
2023/07/16 03:27:22;;;;;;;4.50;1.02;;;19.30;1.00;;;;;;5068122;28;20491;-69
2023/07/16 03:29:47;;;;;;;5.13;1.02;;;19.10;1.00;;;;;;5068066;28;20387;-69
2023/07/16 03:32:14;;;;;;;5.00;1.10;;;19.10;1.00;;;;;;5068332;28;20721;-69
2023/07/16 03:34:40;;;;;;;4.70;1.10;;;19.10;1.00;;;;;;5068461;28;20698;-68
2023/07/16 03:37:05;;;;;;;6.77;1.50;;;19.20;1.00;;;;;;5068256;28;20445;-68
2023/07/16 03:39:31;;;;;;;4.90;1.13;;;19.20;1.00;;;;;;5068127;28;20380;-69
2023/07/16 03:41:57;;;;;;;7.43;1.30;;;19.10;1.00;;;;;;5068808;28;20406;-69
2023/07/16 03:44:22;;;;;;;4.80;1.17;;;19.10;1.00;;;;;;5068462;28;20399;-69
2023/07/16 03:46:48;;;;;;;5.80;1.13;;;19.00;1.00;;;;;;5067995;28;20429;-69
2023/07/16 03:49:13;;;;;;;5.63;1.20;;;19.00;1.00;;;;;;5068191;28;20441;-69
2023/07/16 03:51:39;;;;;;;5.77;1.23;;;19.00;1.00;;;;;;5070210;28;20392;-69
2023/07/16 03:54:04;;;;;;;6.90;1.70;;;19.10;1.00;;;;;;5072266;28;20898;-68
2023/07/16 03:56:30;;;;;;;5.10;1.30;;;19.10;1.00;;;;;;5072002;28;20395;-68
2023/07/16 03:58:55;;;;;;;4.90;1.13;;;19.00;1.00;;;;;;5072687;28;20383;-69
2023/07/16 04:01:21;;;;;;;8.45;1.50;;;19.00;1.00;;;;;;5071363;28;20432;-69
2023/07/16 04:03:46;;;;;;;7.22;1.80;;;19.00;1.00;;;;;;5072332;28;20698;-69
2023/07/16 04:06:14;;;;;;;8.90;1.30;;;19.00;1.00;;;;;;5072042;28;20445;-68
2023/07/16 04:08:39;;;;;;;5.38;1.10;;;19.00;1.00;;;;;;5071721;28;20375;-69
2023/07/16 04:11:05;;;;;;;5.80;1.10;;;18.90;1.00;;;;;;5071847;28;20445;-69
2023/07/16 04:13:32;;;;;;;7.65;1.50;;;18.80;1.00;;;;;;5071150;28;21207;-68
2023/07/16 04:15:58;;;;;;;6.13;1.70;;;18.90;1.00;;;;;;5071727;28;20391;-68
2023/07/16 04:18:27;;;;;;;6.10;1.40;;;19.00;1.00;;;;;;5071906;28;20396;-69
2023/07/16 04:20:53;;;;;;;5.85;1.58;;;19.10;1.00;;;;;;5072192;28;20749;-69
2023/07/16 04:23:20;;;;;;;7.63;1.33;;;19.20;1.00;;;;;;5053804;28;20395;-69
2023/07/16 04:25:46;;;;;;;8.48;1.20;;;19.20;1.00;;;;;;5071265;28;20416;-68
2023/07/16 04:28:12;;;;;;;5.38;1.40;;;19.30;1.00;;;;;;5071140;28;20418;-68
2023/07/16 04:30:37;;;;;;;5.63;1.23;;;19.40;1.00;;;;;;5071225;28;20476;-69
2023/07/16 04:33:04;;;;;;;6.43;1.13;;;19.40;1.00;;;;;;5056909;28;20488;-69
2023/07/16 04:35:29;;;;;;;7.40;1.60;;;19.50;1.00;;;;;;5051769;28;20940;-69
2023/07/16 04:37:55;;;;;;;6.10;1.30;;;19.50;1.00;;;;;;5069754;28;20476;-69
2023/07/16 04:40:20;;;;;;;6.80;1.47;;;19.60;1.00;;;;;;5050894;28;20417;-69
2023/07/16 04:42:46;;;;;;;6.50;1.77;;;19.40;1.00;;;;;;5052597;28;20430;-69
2023/07/16 04:45:12;;;;;;;6.50;1.60;;;19.30;1.00;;;;;;5069886;28;20453;-69
2023/07/16 04:47:38;;;;;;;9.50;1.33;;;19.30;1.00;;;;;;5068612;28;20417;-69
2023/07/16 04:50:04;;;;;;;5.60;1.50;;;19.20;1.00;;;;;;5066692;28;20388;-69
2023/07/16 04:52:29;;;;;;;6.00;1.30;;;19.10;1.00;;;;;;5069952;28;20487;-70
2023/07/16 04:54:55;;;;;;;5.50;1.20;;;19.10;1.00;;;;;;5070774;28;20384;-69
2023/07/16 04:57:21;;;;;;;5.72;1.40;;;19.10;1.00;;;;;;5070540;28;20487;-69
2023/07/16 04:59:46;;;;;;;7.63;1.70;;;19.10;1.00;;;;;;5070735;28;20844;-69
2023/07/16 05:02:12;;;;;;;5.70;1.10;;;19.10;1.00;;;;;;5057857;28;20479;-69
2023/07/16 05:04:37;;;;;;;5.70;1.37;;;19.20;1.00;;;;;;5052459;28;20815;-69
2023/07/16 05:07:03;;;;;;;9.47;1.90;;;19.30;1.00;;;;;;5060846;28;20920;-69
2023/07/16 05:09:29;;;;;;;7.53;1.40;;;19.40;1.00;;;;;;5050698;28;20488;-69
2023/07/16 05:11:55;;;;;;;8.27;1.60;;;19.50;1.00;;;;;;5050892;28;20757;-69
2023/07/16 05:14:20;;;;;;;4.90;1.20;;;19.50;1.00;;;;;;5050506;28;20443;-69
2023/07/16 05:16:46;;;;;;;4.90;1.10;;;19.50;1.00;;;;;;5057728;28;20458;-77
2023/07/16 05:19:12;;;;;;;7.00;1.67;;;19.60;1.00;;;;;;5058801;28;20407;-78
2023/07/16 05:21:38;;;;;;;5.70;1.30;;;19.60;1.00;;;;;;5066546;28;20508;-78
2023/07/16 05:24:04;;;;;;;6.15;1.60;;;19.60;1.00;;;;;;5066871;28;20395;-78
2023/07/16 05:26:29;;;;;;;8.05;1.17;;;19.60;1.00;;;;;;5047702;28;20411;-76
2023/07/16 05:28:55;;;;;;;7.87;1.27;;;19.70;1.00;;;;;;5061826;28;20407;-77
2023/07/16 05:31:20;;;;;;;5.40;1.33;;;19.60;1.00;;;;;;5066336;28;20405;-76
2023/07/16 05:33:46;;;;;;;7.93;1.33;;;19.60;1.00;;;;;;5056501;28;20422;-75
2023/07/16 05:36:11;;;;;;;7.50;1.23;;;19.60;1.00;;;;;;5060390;28;20746;-75
2023/07/16 05:38:37;;;;;;;6.93;1.27;;;19.60;1.00;;;;;;5062223;28;20409;-77
2023/07/16 05:41:04;;;;;;;4.90;1.10;;;19.50;1.00;;;;;;5054837;28;20425;-77
2023/07/16 05:43:29;;;;;;;8.10;1.20;;;19.60;1.00;;;;;;5050245;28;20391;-76
2023/07/16 05:45:55;;;;;;;6.50;1.90;;;19.70;99.90;;;;;;5055863;28;20419;-77
2023/07/16 05:48:20;;;;;;;7.90;1.40;;;19.70;99.90;;;;;;5065469;28;20458;-77
2023/07/16 05:50:46;;;;;;;7.30;1.20;;;19.70;1.00;;;;;;5068447;28;20392;-77
2023/07/16 05:53:13;;;;;;;6.77;1.40;;;19.90;99.90;;;;;;5052675;28;20401;-76
2023/07/16 05:55:39;;;;;;;6.82;1.20;;;20.10;99.90;;;;;;5064870;28;20428;-76
2023/07/16 05:58:05;;;;;;;6.18;1.30;;;20.20;58.00;;;;;;5053366;28;20404;-76
2023/07/16 06:00:31;;;;;;;8.00;1.40;;;20.30;1.00;;;;;;5054943;28;20781;-77
2023/07/16 06:02:56;;;;;;;6.47;1.33;;;20.50;1.00;;;;;;5060505;28;20403;-77
2023/07/16 06:05:22;;;;;;;5.57;1.20;;;20.80;99.90;;;;;;5060195;28;20408;-78
2023/07/16 06:07:47;;;;;;;7.40;1.17;;;20.70;1.00;;;;;;5060975;28;20531;-77
2023/07/16 06:10:13;;;;;;;5.60;1.30;;;20.40;1.00;;;;;;5055548;28;20508;-77
2023/07/16 06:12:39;;;;;;;6.23;1.50;;;20.30;99.90;;;;;;5062145;28;20887;-76
2023/07/16 06:15:05;;;;;;;5.78;1.35;;;20.40;1.00;;;;;;5057248;28;20408;-76
2023/07/16 06:17:30;;;;;;;6.82;1.40;;;20.50;1.00;;;;;;5050105;28;20417;-77
2023/07/16 06:19:57;;;;;;;7.60;1.70;;;20.40;99.90;;;;;;5056350;28;20788;-76
2023/07/16 06:22:23;;;;;;;7.20;1.55;;;20.30;1.00;;;;;;5059434;28;20433;-76
2023/07/16 06:24:48;;;;;;;6.50;1.10;;;20.40;1.00;;;;;;5045529;28;20547;-76
2023/07/16 06:27:14;;;;;;;6.93;1.23;;;20.40;1.00;;;;;;5045860;28;20481;-76
2023/07/16 06:29:39;;;;;;;5.32;1.20;;;20.40;1.00;;;;;;5035806;28;20467;-77
2023/07/16 06:32:05;;;;;;;6.23;1.50;;;20.40;1.00;;;;;;5056698;28;20437;-76
2023/07/16 06:34:31;;;;;;;7.55;1.50;;;20.40;1.00;;;;;;5039944;28;20842;-77
2023/07/16 06:36:57;;;;;;;9.25;2.05;;;20.50;1.00;;;;;;5056352;28;20407;-75
2023/07/16 06:39:22;;;;;;;9.32;2.30;;;20.70;8.10;;;;;;5064475;28;20390;-76
2023/07/16 06:41:48;;;;;;;4.72;0.80;;;20.80;1.00;;;;;;5058441;28;20847;-77
2023/07/16 06:44:13;;;;;;;5.35;1.08;;;20.70;99.90;;;;;;5039283;28;20441;-76
2023/07/16 06:46:39;;;;;;;9.02;1.60;;;20.80;99.90;;;;;;5055735;28;20484;-77
2023/07/16 06:49:06;;;;;;;10.30;1.50;;;21.30;1.00;;;;;;5059841;28;20914;-76
2023/07/16 06:51:32;;;;;;;5.53;1.50;;;21.40;12.40;;;;;;5040210;28;20414;-77
2023/07/16 06:53:58;;;;;;;6.13;1.40;;;21.30;1.00;;;;;;5051977;28;20482;-76
2023/07/16 06:56:25;;;;;;;6.15;1.25;;;21.30;49.00;;;;;;5056193;28;20477;-76
2023/07/16 06:58:51;;;;;;;8.90;1.60;;;21.60;99.90;;;;;;5064628;28;20492;-77
2023/07/16 07:01:16;;;;;;;7.30;1.90;;;22.20;1.00;;;;;;5059698;28;20429;-78
2023/07/16 07:03:42;;;;;;;6.60;1.30;;;22.40;1.00;;;;;;5063944;28;20403;-78
2023/07/16 07:06:10;;;;;;;6.40;1.30;;;22.50;1.00;;;;;;5066490;28;20453;-78
2023/07/16 07:08:36;;;;;;;5.90;1.45;;;22.40;1.00;;;;;;5053326;28;20405;-78
2023/07/16 07:11:04;;;;;;;7.50;1.15;;;22.50;1.00;;;;;;5049747;28;20730;-77
2023/07/16 07:13:29;;;;;;;5.00;1.27;;;22.40;1.00;;;;;;5060954;28;20872;-77
2023/07/16 07:15:56;;;;;;;5.20;1.30;;;22.40;99.90;;;;;;5054423;28;20416;-77
2023/07/16 07:18:22;;;;;;;6.10;1.10;;;22.40;99.90;;;;;;5059690;28;20973;-78
2023/07/16 07:20:47;;;;;;;7.90;1.30;;;22.50;99.90;;;;;;5060876;28;20507;-76
2023/07/16 07:23:13;;;;;;;6.20;1.10;;;22.80;1.00;;;;;;5069438;28;20402;-78
2023/07/16 07:25:39;;;;;;;8.05;1.70;;;23.50;99.90;;;;;;5072108;28;20744;-76
2023/07/16 07:28:04;;;;;;;6.30;1.60;;;23.50;56.20;;;;;;5081298;28;20387;-78
2023/07/16 07:30:30;;;;;;;6.33;1.40;;;23.10;99.90;;;;;;5080570;28;20395;-77
2023/07/16 07:32:56;;;;;;;6.07;1.30;;;24.00;99.90;;;;;;5075594;28;20448;-77
2023/07/16 07:35:21;;;;;;;6.20;1.10;;;25.80;1.00;;;;;;5067438;28;20403;-77
2023/07/16 07:37:47;;;;;;;6.82;1.20;;;26.30;99.90;;;;;;5069954;28;20399;-77
2023/07/16 07:40:13;;;;;;;7.57;1.30;;;25.60;99.90;;;;;;5068630;28;20767;-78
2023/07/16 07:42:38;;;;;;;6.70;1.10;;;24.30;99.90;;;;;;5068770;28;20524;-77
2023/07/16 07:45:05;;;;;;;6.30;1.50;;;23.90;1.00;;;;;;5075700;28;20457;-76
2023/07/16 07:47:30;;;;;;;6.60;1.77;;;24.30;1.00;;;;;;5076313;28;20423;-77
2023/07/16 07:49:56;;;;;;;7.13;1.20;;;24.50;1.00;;;;;;5075847;28;20906;-77
2023/07/16 07:52:21;;;;;;;6.80;1.30;;;24.60;99.90;;;;;;5058770;28;20388;-77
2023/07/16 07:54:47;;;;;;;6.80;1.50;;;24.60;99.90;;;;;;5071925;28;20479;-79
2023/07/16 07:57:12;;;;;;;7.75;1.75;;;24.40;99.90;;;;;;5078881;28;20725;-79
2023/07/16 07:59:38;;;;;;;5.72;1.30;;;25.30;99.90;;;;;;5060076;28;20399;-78
2023/07/16 08:02:05;;;;;;;5.63;1.00;;;25.90;99.90;;;;;;5079117;28;20434;-79
2023/07/16 08:04:32;;;;;;;6.53;1.58;;;26.60;99.90;;;;;;5067467;28;20423;-78
2023/07/16 08:06:57;;;;;;;5.00;0.85;;;26.90;99.90;;;;;;5059963;28;20471;-77
2023/07/16 08:09:26;;;;;;;5.47;1.10;;;27.10;99.90;;;;;;5081328;28;20431;-78
2023/07/16 08:11:52;;;;;;;6.03;1.20;;;27.30;99.90;;;;;;5063193;28;20403;-78
2023/07/16 08:14:17;;;;;;;7.90;1.30;;;26.70;99.90;;;;;;5080237;28;20768;-78
2023/07/16 08:16:43;;;;;;;5.23;1.23;;;26.50;99.90;;;;;;5077333;28;20396;-77
2023/07/16 08:19:09;;;;;;;9.10;1.20;;;26.60;99.90;;;;;;5058468;28;20387;-77
2023/07/16 08:21:35;;;;;;;7.57;1.30;;;26.20;99.90;;;;;;5074773;28;20419;-77
2023/07/16 08:24:01;;;;;;;5.50;1.30;;;26.20;99.90;;;;;;5077276;28;20398;-78
2023/07/16 08:26:27;;;;;;;5.60;1.20;;;28.10;99.90;;;;;;5055624;28;20409;-78
2023/07/16 08:28:52;;;;;;;6.37;1.20;;;29.50;99.90;;;;;;5076316;28;20449;-79
2023/07/16 08:31:18;;;;;;;6.37;1.40;;;28.50;99.90;;;;;;5076862;28;20412;-78
2023/07/16 08:33:43;;;;;;;6.03;1.43;;;27.70;99.90;;;;;;5072907;28;20411;-79
2023/07/16 08:36:09;;;;;;;6.40;1.60;;;28.10;99.90;;;;;;5078937;28;20456;-79
2023/07/16 08:38:35;;;;;;;6.10;1.10;;;28.30;99.90;;;;;;5089530;28;20412;-78
2023/07/16 08:41:01;;;;;;;7.30;1.40;;;27.40;99.90;;;;;;5092054;28;20438;-78
2023/07/16 08:43:28;;;;;;;6.00;1.30;;;26.60;99.90;;;;;;5075578;28;20429;-80
2023/07/16 08:45:55;;;;;;;5.65;1.10;;;25.90;99.90;;;;;;5084269;28;20416;-78
2023/07/16 08:48:22;;;;;;;7.00;1.75;;;25.00;99.90;;;;;;5058543;28;20482;-69
2023/07/16 08:50:49;;;;;;;8.68;1.48;;;24.80;99.90;;;;;;5065890;28;21396;-70
2023/07/16 08:53:18;;;;;;;6.95;1.90;;;24.40;99.90;;;;;;5071561;28;20390;-70
2023/07/16 08:55:45;;;;;;;9.20;1.80;;;24.30;99.90;;;;;;5074407;28;20406;-71
2023/07/16 08:58:14;;;;;;;11.77;1.50;;;24.40;99.90;;;;;;5075991;28;20436;-71
2023/07/16 09:00:41;;;;;;;6.20;1.20;;;24.30;99.90;;;;;;5076001;28;20428;-71
2023/07/16 09:03:08;;;;;;;7.25;2.20;;;24.30;99.90;;;;;;5068404;28;20397;-72
2023/07/16 09:05:36;;;;;;;5.68;1.30;;;24.30;99.90;;;;;;5060577;28;20408;-72
2023/07/16 09:08:02;;;;;;;6.00;1.27;;;24.70;99.90;;;;;;5070911;28;20411;-72
2023/07/16 09:10:27;;;;;;;8.90;1.90;;;24.60;99.90;;;;;;5075353;28;20882;-73
2023/07/16 09:12:58;;;;;;;10.35;1.27;;;25.30;99.90;;;;;;5074151;28;20398;-73
2023/07/16 09:15:24;;;;;;;6.32;1.45;;;25.20;99.90;;;;;;5075826;28;20399;-72
2023/07/16 09:17:50;;;;;;;7.28;1.30;;;25.00;99.90;;;;;;5074210;28;20385;-72
2023/07/16 09:20:17;;;;;;;6.80;1.40;;;25.20;99.90;;;;;;5054325;28;20470;-72
2023/07/16 09:22:44;;;;;;;6.45;1.30;;;25.40;99.90;;;;;;5071541;28;20406;-72
2023/07/16 09:25:10;;;;;;;8.15;1.15;;;24.80;99.90;;;;;;5072922;28;20399;-72
2023/07/16 09:27:36;;;;;;;6.30;1.50;;;24.20;99.90;;;;;;5071890;28;20396;-72
2023/07/16 09:30:05;;;;;;;6.93;1.40;;;24.10;99.90;;;;;;5073606;28;20878;-72
2023/07/16 09:32:40;;;;;;;7.70;1.20;;;24.30;99.90;;;;;;5070903;28;20813;-73
2023/07/16 09:35:09;;;;;;;6.80;1.88;;;24.70;99.90;;;;;;5069777;28;20902;-73
2023/07/16 09:37:38;;;;;;;7.55;1.40;;;25.00;99.90;;;;;;5059805;28;20478;-73
2023/07/16 09:40:10;;;;;;;5.57;0.98;;;27.10;99.90;;;;;;5068405;28;20411;-73
2023/07/16 09:42:43;;;;;;;5.35;1.15;;;28.70;99.90;;;;;;5071919;28;20380;-72
2023/07/16 09:45:17;;;;;;;7.50;1.40;;;28.90;99.90;;;;;;5068619;28;20458;-72
2023/07/16 09:47:42;;;;;;;7.40;1.35;;;29.00;99.90;;;;;;5049581;28;20417;-72
2023/07/16 09:50:09;;;;;;;6.00;1.35;;;29.10;99.90;;;;;;5058648;28;20433;-73
2023/07/16 09:52:34;;;;;;;5.50;1.40;;;29.90;99.90;;;;;;5062604;28;20432;-72
2023/07/16 09:55:03;;;;;;;7.70;2.00;;;30.90;99.90;;;;;;5061699;28;20446;-73
2023/07/16 09:57:33;;;;;;;6.50;1.10;;;31.00;99.90;;;;;;5069480;28;20388;-72
2023/07/16 10:00:05;;;;;;;7.13;1.30;;;31.70;99.90;;;;;;5062176;28;20532;-72
2023/07/16 10:02:35;;;;;;;6.35;1.33;;;31.60;99.90;;;;;;5064506;28;20426;-72
2023/07/16 10:05:11;;;;;;;5.68;1.40;;;30.30;99.90;;;;;;5067877;28;20388;-71
2023/07/16 10:07:37;;;;;;;5.60;1.30;;;28.80;99.90;;;;;;5068185;28;20400;-72
2023/07/16 10:10:08;;;;;;;7.50;1.40;;;27.80;99.90;;;;;;5067478;28;20487;-72
2023/07/16 10:12:36;;;;;;;5.82;1.30;;;27.90;99.90;;;;;;5064776;28;20387;-71
2023/07/16 10:15:03;;;;;;;5.60;1.50;;;26.90;99.90;;;;;;5056152;28;20420;-72
2023/07/16 10:17:31;;;;;;;6.00;1.40;;;27.70;99.90;;;;;;5063336;28;20494;-72
2023/07/16 10:20:08;;;;;;;5.90;1.38;;;28.30;99.90;;;;;;5069569;28;20838;-72
2023/07/16 10:22:41;;;;;;;7.10;1.60;;;29.20;99.90;;;;;;5061985;28;20405;-71
2023/07/16 10:25:24;;;;;;;5.17;0.80;;;29.80;99.90;;;;;;5064443;28;20455;-71
2023/07/16 10:27:53;;;;;;;6.00;1.20;;;30.40;99.90;;;;;;5044753;28;20408;-72
2023/07/16 10:30:19;;;;;;;5.88;1.30;;;30.60;99.90;;;;;;5076905;28;20402;-82
2023/07/16 10:32:46;;;;;;;7.10;2.20;;;30.70;99.90;;;;;;5089090;28;20391;-80
2023/07/16 10:35:12;;;;;;;5.93;1.30;;;30.10;99.90;;;;;;5075928;28;21309;-81
2023/07/16 10:37:39;;;;;;;5.60;1.13;;;29.30;99.90;;;;;;5069939;28;20874;-80
2023/07/16 10:40:10;;;;;;;5.70;1.20;;;28.90;99.90;;;;;;5039108;28;20434;-82
2023/07/16 10:42:35;;;;;;;6.37;1.30;;;28.50;99.90;;;;;;5074036;28;20446;-80
2023/07/16 10:45:04;;;;;;;6.53;1.40;;;28.20;99.90;;;;;;5049350;28;20393;-78
2023/07/16 10:47:38;;;;;;;6.13;1.40;;;27.70;99.90;;;;;;5065472;28;20396;-79
2023/07/16 10:50:09;;;;;;;5.53;1.40;;;26.90;99.90;;;;;;5050164;28;20397;-81
2023/07/16 10:52:37;;;;;;;5.97;1.58;;;26.40;99.90;;;;;;5070534;28;20406;-80
2023/07/16 10:55:03;;;;;;;6.82;1.80;;;26.70;99.90;;;;;;5058240;28;20482;-81
2023/07/16 10:57:29;;;;;;;5.70;1.30;;;27.00;99.90;;;;;;5044090;28;20505;-80
2023/07/16 10:59:58;;;;;;;5.43;1.20;;;27.00;99.90;;;;;;5067791;28;20429;-80
2023/07/16 11:02:24;;;;;;;8.40;1.52;;;27.20;99.90;;;;;;5056152;28;20396;-80
2023/07/16 11:05:18;;;;;;;6.95;1.88;;;27.10;99.90;;;;;;5054707;28;20457;-81
2023/07/16 11:07:48;;;;;;;5.60;1.38;;;27.30;99.90;;;;;;5040209;28;20407;-80
2023/07/16 11:10:18;;;;;;;7.28;1.60;;;27.50;99.90;;;;;;5074618;28;20715;-78
2023/07/16 11:12:44;;;;;;;5.80;1.55;;;27.40;99.90;;;;;;5051366;28;20403;-79
2023/07/16 11:15:11;;;;;;;5.45;1.50;;;27.60;99.90;;;;;;5047567;28;20478;-79
2023/07/16 11:17:40;;;;;;;6.03;1.60;;;28.10;99.90;;;;;;5072556;28;20391;-78
2023/07/16 11:20:10;;;;;;;6.20;1.45;;;28.60;99.90;;;;;;5075644;28;20419;-78
2023/07/16 11:22:38;;;;;;;6.00;1.50;;;28.10;99.90;;;;;;5083267;28;20430;-77
2023/07/16 11:25:10;;;;;;;5.80;1.33;;;27.70;99.90;;;;;;5066887;28;20402;-78
2023/07/16 11:27:36;;;;;;;6.30;1.38;;;27.70;99.90;;;;;;5079870;28;20415;-77
2023/07/16 11:30:01;;;;;;;6.88;1.30;;;27.80;99.90;;;;;;5075153;28;20399;-77
2023/07/16 11:32:31;;;;;;;8.15;1.60;;;27.50;99.90;;;;;;5078236;28;20893;-78
2023/07/16 11:34:58;;;;;;;6.10;1.40;;;27.70;99.90;;;;;;5060631;28;20496;-78
2023/07/16 11:37:29;;;;;;;6.97;1.48;;;27.30;99.90;;;;;;5074887;28;20412;-79
2023/07/16 11:40:00;;;;;;;6.35;1.67;;;27.40;99.90;;;;;;5059892;28;20431;-78
2023/07/16 11:42:37;;;;;;;6.30;1.85;;;27.90;99.90;;;;;;5057152;28;20411;-78
2023/07/16 11:45:04;;;;;;;6.00;1.30;;;28.30;99.90;;;;;;5072791;28;20493;-77
2023/07/16 11:47:30;;;;;;;9.90;1.53;;;28.40;99.90;;;;;;5066946;28;20395;-78
2023/07/16 11:49:57;;;;;;;6.20;1.60;;;27.80;99.90;;;;;;5073128;28;20407;-77
2023/07/16 11:52:27;;;;;;;6.13;1.50;;;27.50;99.90;;;;;;5072746;28;20384;-77
2023/07/16 11:54:53;;;;;;;6.53;1.10;;;26.70;99.90;;;;;;5071447;28;20396;-77
2023/07/16 11:57:19;;;;;;;7.60;2.10;;;26.20;99.90;;;;;;5067409;28;20457;-77
2023/07/16 11:59:45;;;;;;;6.00;1.50;;;26.60;99.90;;;;;;5068760;28;20400;-77
2023/07/16 12:02:11;;;;;;;5.60;1.50;;;26.60;99.90;;;;;;5069050;28;20435;-77
2023/07/16 12:04:36;;;;;;;7.30;1.60;;;27.10;99.90;;;;;;5069912;28;20406;-77
2023/07/16 12:07:02;;;;;;;8.20;1.60;;;27.00;99.90;;;;;;5059968;28;20734;-76
2023/07/16 12:09:28;;;;;;;6.33;1.50;;;27.30;99.90;;;;;;5056991;28;20838;-78
2023/07/16 12:11:53;;;;;;;6.47;1.80;;;27.80;99.90;;;;;;5031531;28;20417;-77
2023/07/16 12:14:19;;;;;;;5.33;1.30;;;27.80;99.90;;;;;;5054451;28;20888;-78
2023/07/16 12:16:45;;;;;;;5.60;1.10;;;27.80;99.90;;;;;;5055836;28;20880;-77
2023/07/16 12:19:10;;;;;;;5.40;1.33;;;27.90;99.90;;;;;;5065694;28;20404;-77
2023/07/16 12:21:36;;;;;;;6.07;1.50;;;27.70;99.90;;;;;;5060433;28;21235;-76
2023/07/16 12:24:02;;;;;;;5.93;1.48;;;27.90;99.90;;;;;;5072677;28;20404;-74
2023/07/16 12:26:28;;;;;;;5.93;1.57;;;28.10;99.90;;;;;;5067765;28;20748;-77
2023/07/16 12:28:53;;;;;;;6.03;1.20;;;28.10;99.90;;;;;;5071657;28;20761;-76
2023/07/16 12:31:20;;;;;;;5.63;1.43;;;28.30;99.90;;;;;;5074468;28;20396;-77
2023/07/16 12:33:46;;;;;;;6.20;1.50;;;28.60;99.90;;;;;;5073454;28;20382;-77
2023/07/16 12:36:12;;;;;;;5.65;1.70;;;28.30;99.90;;;;;;5070942;28;20483;-77
2023/07/16 12:38:38;;;;;;;5.95;1.40;;;28.20;99.90;;;;;;5043401;28;20390;-75
2023/07/16 12:41:03;;;;;;;6.43;1.70;;;27.90;99.90;;;;;;5057748;28;20411;-76
2023/07/16 12:43:29;;;;;;;5.80;1.48;;;27.80;99.90;;;;;;5071725;28;20450;-76
2023/07/16 12:45:54;;;;;;;5.82;1.40;;;28.10;99.90;;;;;;5064422;28;20989;-76
2023/07/16 12:48:20;;;;;;;7.78;1.80;;;27.80;99.90;;;;;;5063417;28;20450;-78